Time;durP1;ratioP1;P1;durP2;ratioP2;P2;SDS_P1;SDS_P2;PMS_P1;PMS_P2;Temp;Humidity;BMP_temperature;BMP_pressure;BME280_temperature;BME280_humidity;BME280_pressure;Samples;Min_cycle;Max_cycle;Signal;HPM_P1;HPM_P2
2021/03/13 00:01:18;;;;;;;45.05;27.22;;;;;;;3.25;65.49;96831.45;1778568;81;21286;-79
2021/03/13 00:03:47;;;;;;;42.62;24.57;;;;;;;3.27;65.60;96836.95;1743936;82;21736;-77
2021/03/13 00:06:15;;;;;;;51.68;30.40;;;;;;;3.30;65.52;96829.91;1781350;81;21282;-79
2021/03/13 00:08:43;;;;;;;45.50;28.17;;;;;;;3.24;65.64;96826.72;1736890;82;21116;-77
2021/03/13 00:11:11;;;;;;;50.73;28.00;;;;;;;3.16;65.91;96824.15;1751255;82;21286;-76
2021/03/13 00:13:40;;;;;;;50.12;32.40;;;;;;;3.12;66.08;96821.70;1751897;81;21103;-77
2021/03/13 00:16:08;;;;;;;52.73;30.90;;;;;;;3.11;66.42;96822.63;1750923;82;21154;-76
2021/03/13 00:18:37;;;;;;;53.10;30.92;;;;;;;3.17;66.47;96821.92;1750288;82;21158;-77
2021/03/13 00:21:05;;;;;;;50.03;29.37;;;;;;;3.17;66.27;96815.41;1750540;82;21603;-77
2021/03/13 00:23:33;;;;;;;46.70;27.93;;;;;;;3.20;66.30;96811.34;1750369;82;21594;-77
2021/03/13 00:26:01;;;;;;;48.30;28.55;;;;;;;3.26;66.21;96811.83;1750797;82;21138;-77
2021/03/13 00:28:33;;;;;;;48.20;28.38;;;;;;;3.32;66.21;96800.70;1750798;82;21142;-77
2021/03/13 00:31:01;;;;;;;44.93;27.00;;;;;;;3.37;66.05;96796.92;1755702;81;21203;-77
2021/03/13 00:33:34;;;;;;;40.75;24.87;;;;;;;3.40;65.86;96797.20;1744619;82;21295;-77
2021/03/13 00:35:59;;;;;;;45.78;24.12;;;;;;;3.43;65.78;96797.87;1780805;80;21148;-77
2021/03/13 00:38:27;;;;;;;37.13;21.50;;;;;;;3.44;65.83;96790.42;1743616;82;21157;-76
2021/03/13 00:41:06;;;;;;;30.70;18.50;;;;;;;3.48;65.79;96801.99;1781291;81;21165;-77
2021/03/13 00:43:34;;;;;;;27.20;16.95;;;;;;;3.47;65.79;96799.01;1744102;82;21156;-76
2021/03/13 00:46:02;;;;;;;31.90;17.98;;;;;;;3.40;65.74;96797.20;1781484;81;21728;-77
2021/03/13 00:48:29;;;;;;;35.38;20.55;;;;;;;3.37;65.84;96791.70;1744346;82;21148;-76
2021/03/13 00:50:57;;;;;;;35.90;23.65;;;;;;;3.35;65.74;96794.00;1780926;81;21685;-75
2021/03/13 00:53:25;;;;;;;42.58;24.87;;;;;;;3.35;65.81;96790.09;1744424;82;21182;-78
2021/03/13 00:55:53;;;;;;;39.10;23.60;;;;;;;3.32;65.84;96788.50;1781371;80;21756;-77
2021/03/13 00:58:23;;;;;;;42.80;24.27;;;;;;;3.33;65.82;96790.19;1739453;82;21132;-76
2021/03/13 01:00:52;;;;;;;37.58;23.85;;;;;;;3.33;65.75;96790.66;1750686;81;21284;-77
2021/03/13 01:03:22;;;;;;;42.78;26.87;;;;;;;3.28;65.86;96780.50;1749928;82;21284;-76
2021/03/13 01:05:50;;;;;;;41.35;25.12;;;;;;;3.27;65.80;96784.85;1750583;82;21135;-78
2021/03/13 01:08:18;;;;;;;39.65;25.27;;;;;;;3.26;65.93;96777.95;1750777;82;21136;-77
2021/03/13 01:10:50;;;;;;;43.85;25.65;;;;;;;3.27;65.84;96777.52;1750910;82;21103;-77
2021/03/13 01:13:21;;;;;;;42.38;24.27;;;;;;;3.26;65.88;96779.26;1751020;82;21258;-76
2021/03/13 01:15:50;;;;;;;41.13;23.80;;;;;;;3.28;65.99;96781.33;1750331;82;21104;-77
2021/03/13 01:18:19;;;;;;;39.67;24.55;;;;;;;3.35;66.01;96779.22;1750105;82;21142;-77
2021/03/13 01:20:51;;;;;;;43.50;24.37;;;;;;;3.38;66.10;96777.75;1755127;81;21146;-76
2021/03/13 01:23:21;;;;;;;39.73;24.07;;;;;;;3.48;66.27;96778.54;1763967;81;21112;-77
2021/03/13 01:25:49;;;;;;;44.77;24.45;;;;;;;3.56;66.26;96788.06;1764445;81;21235;-78
2021/03/13 01:28:17;;;;;;;43.13;24.65;;;;;;;3.67;66.20;96790.05;1771954;80;21580;-76
2021/03/13 01:30:46;;;;;;;48.08;23.47;;;;;;;3.78;66.08;96798.54;1755453;82;21297;-77
2021/03/13 01:33:14;;;;;;;38.78;26.75;;;;;;;3.82;65.56;96795.67;1728377;83;21528;-77
2021/03/13 01:35:42;;;;;;;45.95;28.47;;;;;;;3.88;65.76;96798.39;1728139;83;21163;-76
2021/03/13 01:38:10;;;;;;;46.55;28.20;;;;;;;3.93;65.53;96797.67;1757957;82;21160;-77
2021/03/13 01:40:39;;;;;;;49.08;28.98;;;;;;;3.99;65.37;96806.44;1757937;81;21314;-77
2021/03/13 01:43:09;;;;;;;46.20;28.30;;;;;;;3.96;64.95;96801.39;1757883;81;21696;-77
2021/03/13 01:45:39;;;;;;;44.13;27.37;;;;;;;3.91;64.85;96801.66;1730466;82;21278;-75
2021/03/13 01:48:08;;;;;;;39.15;24.55;;;;;;;3.94;64.92;96799.80;1756608;82;21124;-77
2021/03/13 01:50:37;;;;;;;45.73;27.62;;;;;;;3.90;64.76;96801.75;1728103;83;21124;-75
2021/03/13 01:53:05;;;;;;;42.20;27.15;;;;;;;3.82;64.84;96800.88;1735093;82;21286;-78
2021/03/13 01:55:34;;;;;;;45.30;23.00;;;;;;;3.81;64.86;96797.89;1757936;82;21262;-77
2021/03/13 01:58:04;;;;;;;38.65;24.75;;;;;;;3.78;64.90;96800.70;1756757;82;21125;-77
2021/03/13 02:00:33;;;;;;;43.42;27.15;;;;;;;3.65;64.99;96796.66;1757560;82;21148;-77
2021/03/13 02:03:03;;;;;;;41.75;26.02;;;;;;;3.60;65.52;96796.06;1730603;82;21147;-76
2021/03/13 02:05:44;;;;;;;41.02;23.60;;;;;;;3.62;65.65;96785.57;1758016;82;21159;-77
2021/03/13 02:08:57;;;;;;;40.73;26.20;;;;;;;3.62;65.72;96784.27;1758177;82;21157;-76
2021/03/13 02:11:42;;;;;;;37.45;23.77;;;;;;;3.59;65.94;96783.95;1639722;87;21363;-77
2021/03/13 02:14:29;;;;;;;35.00;22.32;;;;;;;3.55;65.83;96785.90;1639439;88;21170;-77
2021/03/13 02:17:20;;;;;;;37.90;23.38;;;;;;;3.57;66.23;96793.66;1833016;77;24857;-77
2021/03/13 02:20:37;;;;;;;44.67;21.37;;;;;;;3.53;65.60;96790.83;1831649;78;21131;-77
2021/03/13 02:23:11;;;;;;;49.85;28.02;;;;;;;3.32;66.16;96787.20;1832093;78;21218;-77
2021/03/13 02:26:22;;;;;;;36.42;16.30;;;;;;;3.16;67.24;96792.89;1832882;78;21277;-76
2021/03/13 02:29:35;;;;;;;44.30;24.18;;;;;;;3.07;68.60;96802.89;1832625;78;21245;-77
2021/03/13 02:32:08;;;;;;;51.50;29.92;;;;;;;2.92;68.60;96805.87;1832837;78;21246;-78
2021/03/13 02:34:41;;;;;;;49.40;30.17;;;;;;;2.81;67.56;96797.79;1832365;78;21135;-76
2021/03/13 02:37:18;;;;;;;56.68;31.37;;;;;;;2.79;67.60;96778.80;1832155;78;21583;-78
2021/03/13 02:39:52;;;;;;;48.15;28.50;;;;;;;2.78;70.99;96775.38;1832627;78;21750;-78
2021/03/13 02:42:22;;;;;;;50.90;28.12;;;;;;;2.82;68.56;96766.93;1831838;77;21269;-77
2021/03/13 02:44:52;;;;;;;50.15;25.85;;;;;;;2.80;68.07;96765.73;1771464;80;21148;-79
2021/03/13 02:47:24;;;;;;;42.70;21.80;;;;;;;2.75;68.63;96771.63;1798628;80;21115;-77
2021/03/13 02:49:56;;;;;;;48.65;30.75;;;;;;;2.72;70.11;96770.51;1799250;79;21115;-76
2021/03/13 02:52:54;;;;;;;57.27;35.68;;;;;;;2.71;70.72;96765.36;1821821;79;24887;-77
2021/03/13 02:55:25;;;;;;;62.00;35.78;;;;;;;2.60;70.86;96768.55;1730549;83;21779;-76
2021/03/13 02:57:57;;;;;;;49.33;30.10;;;;;;;2.49;72.41;96772.56;1743397;81;21143;-78
2021/03/13 03:00:32;;;;;;;64.65;39.18;;;;;;;2.37;73.54;96769.30;1730871;83;21251;-77
2021/03/13 03:03:04;;;;;;;66.80;39.20;;;;;;;2.20;73.74;96771.50;1760876;81;21243;-76
2021/03/13 03:05:34;;;;;;;51.50;29.57;;;;;;;2.20;73.64;96771.50;1728376;83;21155;-77
2021/03/13 03:08:06;;;;;;;65.28;40.03;;;;;;;2.18;76.30;96772.86;1761187;81;21251;-77
2021/03/13 03:10:41;;;;;;;71.07;38.42;;;;;;;2.17;73.53;96772.50;1731056;83;21293;-78
2021/03/13 03:13:11;;;;;;;59.88;35.15;;;;;;;2.21;74.23;96775.78;1760410;81;21147;-77
2021/03/13 03:15:41;;;;;;;59.18;33.98;;;;;;;2.06;76.49;96765.70;1730260;83;21274;-76
2021/03/13 03:18:18;;;;;;;44.55;25.57;;;;;;;1.95;76.35;96764.11;1747732;81;21278;-76
2021/03/13 03:20:48;;;;;;;38.63;21.95;;;;;;;1.91;76.02;96765.17;1701797;83;21172;-76
2021/03/13 03:23:17;;;;;;;61.80;36.33;;;;;;;1.90;76.57;96770.84;1760456;81;21309;-76
2021/03/13 03:25:47;;;;;;;40.33;22.02;;;;;;;1.81;76.80;96772.13;1730473;83;21572;-76
2021/03/13 03:28:18;;;;;;;58.80;34.43;;;;;;;1.82;77.39;96762.59;1711220;83;21171;-77
2021/03/13 03:30:51;;;;;;;64.77;38.40;;;;;;;1.79;76.36;96758.40;1729908;83;21318;-76
2021/03/13 03:33:25;;;;;;;43.90;25.37;;;;;;;1.85;76.01;96761.98;1717970;83;21242;-77
2021/03/13 03:35:58;;;;;;;52.23;30.72;;;;;;;1.97;75.88;96769.60;1701160;84;21235;-77
2021/03/13 03:38:27;;;;;;;62.88;35.88;;;;;;;1.95;76.04;96777.11;1699939;84;21305;-76
2021/03/13 03:40:55;;;;;;;31.33;17.40;;;;;;;2.02;75.97;96781.07;1753348;81;21132;-79
2021/03/13 03:43:38;;;;;;;49.73;30.97;;;;;;;2.06;77.30;96786.51;1729408;83;21254;-76
2021/03/13 03:46:08;;;;;;;46.45;24.00;;;;;;;1.94;76.15;96790.58;1729401;83;21294;-80
2021/03/13 03:48:38;;;;;;;40.33;22.30;;;;;;;1.90;76.94;96797.31;1729837;83;21140;-76
2021/03/13 03:51:44;;;;;;;34.95;19.90;;;;;;;1.83;77.08;96804.09;1873114;75;24160;-77
2021/03/13 03:54:14;;;;;;;40.60;24.05;;;;;;;1.70;78.62;96799.97;1855452;77;21248;-76
2021/03/13 03:56:43;;;;;;;50.73;30.65;;;;;;;1.73;77.33;96805.94;1838897;77;21586;-76
2021/03/13 03:59:20;;;;;;;51.73;33.28;;;;;;;1.76;76.77;96812.29;1834464;77;21621;-76
2021/03/13 04:01:52;;;;;;;56.95;35.17;;;;;;;1.85;78.53;96810.06;1828634;77;21146;-79
2021/03/13 04:04:23;;;;;;;54.58;33.53;;;;;;;1.96;79.84;96807.39;1824458;78;21620;-77
2021/03/13 04:06:53;;;;;;;55.50;34.25;;;;;;;2.09;78.31;96807.61;1830803;78;21127;-76
2021/03/13 04:09:25;;;;;;;56.02;34.03;;;;;;;2.23;77.80;96812.93;1824903;78;21254;-77
2021/03/13 04:11:55;;;;;;;51.90;32.58;;;;;;;2.35;76.97;96812.78;1828629;77;21575;-76
2021/03/13 04:14:24;;;;;;;52.33;33.20;;;;;;;2.50;76.72;96815.05;1812807;78;21567;-75
2021/03/13 04:16:53;;;;;;;57.95;35.78;;;;;;;2.65;76.39;96823.78;1802134;78;21163;-75
2021/03/13 04:19:22;;;;;;;51.63;31.68;;;;;;;2.80;76.14;96820.39;1821634;78;21288;-75
2021/03/13 04:21:50;;;;;;;51.55;34.27;;;;;;;2.92;75.59;96822.79;1786049;79;21292;-76
2021/03/13 04:24:19;;;;;;;46.70;31.17;;;;;;;3.03;75.49;96813.56;1841622;77;21302;-76
2021/03/13 04:26:47;;;;;;;45.95;28.98;;;;;;;3.21;75.42;96801.28;1850594;77;21365;-77
2021/03/13 04:29:15;;;;;;;49.53;33.78;;;;;;;3.33;75.04;96800.61;1860346;77;21308;-77
2021/03/13 04:31:43;;;;;;;47.30;32.70;;;;;;;3.30;74.80;96799.94;1852425;77;21127;-78
2021/03/13 04:34:12;;;;;;;50.30;33.58;;;;;;;3.25;74.51;96798.42;1859670;77;21103;-77
2021/03/13 04:36:40;;;;;;;44.35;27.05;;;;;;;3.23;74.72;96805.95;1830400;78;21154;-76
2021/03/13 04:39:09;;;;;;;48.45;28.75;;;;;;;3.14;75.04;96809.91;1834449;77;21241;-78
2021/03/13 04:41:37;;;;;;;39.23;23.87;;;;;;;3.00;75.68;96824.99;1797336;79;21162;-77
2021/03/13 04:44:07;;;;;;;36.83;22.20;;;;;;;2.92;75.32;96821.48;1798205;79;21285;-77
2021/03/13 04:46:36;;;;;;;34.78;22.05;;;;;;;2.83;76.04;96821.16;1780922;79;21130;-76
2021/03/13 04:49:06;;;;;;;44.60;26.20;;;;;;;2.74;76.01;96816.80;1735717;81;21332;-76
2021/03/13 04:51:35;;;;;;;36.85;20.60;;;;;;;2.60;76.86;96829.70;1762532;81;21327;-76
2021/03/13 04:54:03;;;;;;;44.88;28.05;;;;;;;2.53;77.41;96836.16;1758478;81;21170;-77
2021/03/13 04:56:31;;;;;;;44.93;27.35;;;;;;;2.39;77.83;96823.39;1793554;80;21585;-76
2021/03/13 04:59:00;;;;;;;48.65;28.12;;;;;;;2.34;77.94;96823.63;1783716;80;21281;-77
2021/03/13 05:01:28;;;;;;;56.60;35.30;;;;;;;2.35;77.63;96828.39;1793690;78;21154;-76
2021/03/13 05:03:56;;;;;;;54.48;32.48;;;;;;;2.33;77.41;96823.25;1802847;79;21105;-76
2021/03/13 05:06:24;;;;;;;56.35;35.25;;;;;;;2.43;76.84;96831.44;1813388;79;21151;-76
2021/03/13 05:08:52;;;;;;;38.20;23.15;;;;;;;2.58;76.88;96831.55;1812589;79;21688;-77
2021/03/13 05:11:20;;;;;;;51.23;33.35;;;;;;;2.65;77.08;96842.00;1775454;79;21278;-77
2021/03/13 05:13:48;;;;;;;48.42;30.12;;;;;;;2.60;77.12;96841.42;1799987;79;21167;-76
2021/03/13 05:16:16;;;;;;;55.20;33.02;;;;;;;2.63;76.73;96840.80;1795254;79;21124;-76
2021/03/13 05:18:44;;;;;;;50.67;32.67;;;;;;;2.70;77.05;96841.77;1784284;80;21281;-76
2021/03/13 05:21:15;;;;;;;51.58;31.42;;;;;;;2.81;76.54;96843.34;1741551;81;21168;-76
2021/03/13 05:23:44;;;;;;;47.20;28.35;;;;;;;2.87;76.18;96844.78;1771577;80;21220;-76
2021/03/13 05:26:12;;;;;;;52.58;34.78;;;;;;;2.95;76.27;96836.09;1758511;81;21147;-78
2021/03/13 05:28:40;;;;;;;52.55;34.18;;;;;;;2.96;75.89;96835.18;1789868;78;21186;-77
2021/03/13 05:31:11;;;;;;;50.83;33.20;;;;;;;3.04;76.00;96839.51;1807136;78;21171;-78
2021/03/13 05:33:40;;;;;;;53.92;36.60;;;;;;;3.13;75.78;96845.52;1790089;79;21146;-76
2021/03/13 05:36:11;;;;;;;49.95;34.70;;;;;;;3.23;75.90;96846.32;1774671;79;21170;-77
2021/03/13 05:38:39;;;;;;;52.03;33.55;;;;;;;3.37;75.53;96845.56;1773541;80;21152;-78
2021/03/13 05:41:07;;;;;;;49.60;31.07;;;;;;;3.47;75.32;96835.02;1799483;78;21197;-78
2021/03/13 05:43:37;;;;;;;50.55;32.38;;;;;;;3.55;75.35;96828.91;1791550;78;21189;-77
2021/03/13 05:46:08;;;;;;;36.55;23.55;;;;;;;3.55;74.65;96827.59;1779111;79;21258;-76
2021/03/13 05:48:47;;;;;;;40.23;25.15;;;;;;;3.60;74.45;96841.67;1738147;80;21494;-75
2021/03/13 05:51:16;;;;;;;37.38;22.60;;;;;;;3.57;74.91;96844.48;1759577;80;21159;-77
2021/03/13 05:53:49;;;;;;;46.45;28.85;;;;;;;3.50;75.03;96841.81;1793888;80;21325;-76
2021/03/13 05:56:17;;;;;;;47.33;31.05;;;;;;;3.40;75.23;96848.84;1748264;81;21277;-78
2021/03/13 05:58:45;;;;;;;33.25;19.80;;;;;;;3.34;74.92;96851.80;1757361;81;21131;-76
2021/03/13 06:01:13;;;;;;;47.73;32.03;;;;;;;3.34;75.34;96854.40;1758051;81;21250;-75
2021/03/13 06:03:41;;;;;;;50.10;33.95;;;;;;;3.34;74.96;96853.57;1804128;79;21254;-77
2021/03/13 06:06:10;;;;;;;47.10;31.15;;;;;;;3.42;75.04;96857.42;1816650;78;21142;-76
2021/03/13 06:08:39;;;;;;;45.33;30.20;;;;;;;3.56;75.18;96868.86;1811888;78;21130;-77
2021/03/13 06:11:06;;;;;;;35.83;23.35;;;;;;;3.69;75.12;96874.22;1804678;78;21169;-77
2021/03/13 06:13:36;;;;;;;44.70;28.10;;;;;;;3.87;74.80;96874.94;1793343;80;21574;-78
2021/03/13 06:16:04;;;;;;;43.38;27.80;;;;;;;3.88;74.37;96871.41;1794830;80;21141;-78
2021/03/13 06:18:52;;;;;;;40.63;26.55;;;;;;;3.82;74.44;96875.67;1777669;80;21190;-78
2021/03/13 06:21:37;;;;;;;40.80;23.38;;;;;;;3.85;74.29;96879.42;1787050;80;21273;-77
2021/03/13 06:24:18;;;;;;;46.92;28.60;;;;;;;3.82;74.05;96884.80;1796074;79;21312;-76
2021/03/13 06:26:57;;;;;;;38.45;24.35;;;;;;;3.74;74.16;96886.52;1784280;79;21270;-77
2021/03/13 06:29:31;;;;;;;44.55;28.87;;;;;;;3.79;74.21;96889.73;1772944;80;21290;-76
2021/03/13 06:32:14;;;;;;;46.58;28.80;;;;;;;3.95;74.23;96894.89;1765535;78;21142;-78
2021/03/13 06:35:29;;;;;;;47.67;30.30;;;;;;;4.15;74.12;96902.05;1757066;80;21580;-77
2021/03/13 06:38:05;;;;;;;44.00;30.08;;;;;;;4.22;73.54;96903.40;1765406;80;21296;-76
2021/03/13 06:40:38;;;;;;;45.15;31.93;;;;;;;4.39;73.75;96905.01;1786060;80;21129;-77
2021/03/13 06:43:28;;;;;;;53.83;34.35;;;;;;;4.61;73.64;96908.98;1787957;80;21174;-77
2021/03/13 06:46:08;;;;;;;50.23;33.40;;;;;;;4.85;73.34;96905.38;1749688;81;21135;-78
2021/03/13 06:48:57;;;;;;;42.90;29.55;;;;;;;5.12;73.12;96909.84;1755227;81;21151;-77
2021/03/13 06:51:38;;;;;;;44.73;30.20;;;;;;;5.38;71.96;96922.59;1736063;81;21347;-77
2021/03/13 06:54:17;;;;;;;40.10;27.25;;;;;;;5.44;71.46;96937.92;1778385;77;21129;-76
2021/03/13 06:56:56;;;;;;;43.00;28.90;;;;;;;5.51;70.85;96940.14;1796162;77;21270;-78
2021/03/13 07:02:23;;;;;;;50.52;31.93;;;;;;;5.66;70.29;96931.81;1826784;77;24153;-77
2021/03/13 07:05:07;;;;;;;44.40;29.18;;;;;;;5.76;70.61;96941.58;1817765;78;21535;-78
2021/03/13 07:07:36;;;;;;;44.55;31.15;;;;;;;5.77;69.80;96931.50;1798219;80;21133;-77
2021/03/13 07:10:11;;;;;;;43.83;30.25;;;;;;;5.78;70.00;96934.97;1800561;78;21111;-77
2021/03/13 07:12:44;;;;;;;43.90;30.52;;;;;;;5.91;70.30;96936.33;1797590;80;21242;-78
2021/03/13 07:15:26;;;;;;;32.40;21.75;;;;;;;6.11;70.16;96935.55;1798127;80;21136;-77
2021/03/13 07:18:00;;;;;;;49.90;33.98;;;;;;;6.17;69.79;96932.04;1798018;80;21146;-76
2021/03/13 07:20:32;;;;;;;42.83;31.75;;;;;;;6.16;69.52;96938.23;1797514;79;21148;-77
2021/03/13 07:23:05;;;;;;;44.13;31.15;;;;;;;6.34;69.51;96944.03;1773247;80;21146;-78
2021/03/13 07:25:33;;;;;;;44.93;31.93;;;;;;;6.59;69.04;96942.89;1735816;83;21298;-78
2021/03/13 07:28:04;;;;;;;45.17;31.23;;;;;;;6.72;68.75;96946.38;1736262;82;21263;-77
2021/03/13 07:30:35;;;;;;;49.85;31.52;;;;;;;6.87;67.18;96957.12;1715239;83;21140;-77
2021/03/13 07:33:07;;;;;;;37.42;26.70;;;;;;;7.03;67.93;96951.69;1736621;82;21180;-77
2021/03/13 07:35:44;;;;;;;34.92;26.40;;;;;;;7.26;67.66;96951.87;1740007;82;21243;-78
2021/03/13 07:38:15;;;;;;;38.78;27.32;;;;;;;7.55;67.21;96954.73;1742805;82;21278;-77
2021/03/13 07:40:48;;;;;;;;;;;;;;;7.78;67.22;96959.67;1725647;81;21308;-77
2021/03/13 07:43:18;;;;;;;35.83;26.23;;;;;;;7.85;63.57;96958.28;1629587;87;20155;-79
2021/03/13 07:45:48;;;;;;;41.05;25.10;;;;;;;7.94;66.27;96937.94;1638671;87;21378;-78
2021/03/13 07:48:28;;;;;;;41.92;27.73;;;;;;;8.03;64.87;96946.09;1782143;79;24706;-78
2021/03/13 07:50:57;;;;;;;38.65;27.25;;;;;;;7.93;64.81;96948.55;1754960;82;21167;-78
2021/03/13 07:53:25;;;;;;;42.33;26.77;;;;;;;7.97;64.52;96957.41;1754434;82;21732;-77
2021/03/13 07:55:55;;;;;;;41.05;28.27;;;;;;;7.95;64.65;96951.88;1754572;82;21137;-78
2021/03/13 07:58:24;;;;;;;39.27;28.27;;;;;;;7.98;64.95;96951.67;1754454;82;21129;-79
2021/03/13 08:00:53;;;;;;;34.95;23.67;;;;;;;7.95;64.27;96938.30;1753951;81;21153;-78
2021/03/13 08:03:37;;;;;;;44.83;28.38;;;;;;;7.96;63.99;96936.50;1754669;82;21263;-79
2021/03/13 08:06:13;;;;;;;45.10;30.62;;;;;;;8.00;64.37;96932.72;1691622;85;21184;-77
2021/03/13 08:08:52;;;;;;;43.98;29.82;;;;;;;8.13;63.76;96937.91;1715216;84;21258;-81
2021/03/13 08:11:21;;;;;;;37.83;27.65;;;;;;;8.19;63.23;96928.75;1715884;84;21145;-78
2021/03/13 08:13:56;;;;;;;35.85;24.32;;;;;;;8.35;63.21;96925.36;1715964;84;21175;-78
2021/03/13 08:17:14;;;;;;;48.30;29.42;;;;;;;8.74;62.62;96925.98;1843690;77;24443;-77
2021/03/13 08:19:44;;;;;;;43.63;27.10;;;;;;;8.90;62.32;96922.19;1767319;79;21299;-78
2021/03/13 08:22:20;;;;;;;37.25;24.45;;;;;;;9.22;61.43;96928.09;1782113;79;21304;-77
2021/03/13 08:24:54;;;;;;;38.02;25.43;;;;;;;9.22;61.43;96928.09;1801056;79;21325;-78
2021/03/13 08:27:41;;;;;;;30.43;21.90;;;;;;;9.24;60.06;96934.53;1799640;79;21698;-79
2021/03/13 08:30:19;;;;;;;35.75;25.88;;;;;;;9.20;59.55;96939.20;1801200;79;21277;-78
2021/03/13 08:33:06;;;;;;;34.92;24.55;;;;;;;9.14;60.10;96935.24;1796391;79;21311;-78
2021/03/13 08:35:42;;;;;;;36.90;26.05;;;;;;;9.24;60.05;96941.11;1795516;80;21267;-76
2021/03/13 08:38:11;;;;;;;23.25;14.50;;;;;;;9.18;59.67;96943.73;1808096;78;21159;-78
2021/03/13 08:40:52;;;;;;;29.12;19.95;;;;;;;9.16;58.58;96939.92;1799688;78;21300;-78
2021/03/13 08:43:34;;;;;;;36.38;22.62;;;;;;;8.71;58.45;96939.34;1776079;80;21265;-78
2021/03/13 08:46:04;;;;;;;37.50;24.40;;;;;;;8.58;59.78;96928.92;1786729;80;21258;-78
2021/03/13 08:48:58;;;;;;;34.75;24.37;;;;;;;8.67;60.08;96932.67;1775803;80;21159;-78
2021/03/13 08:54:10;;;;;;;30.92;22.15;;;;;;;9.20;58.93;96929.99;1818845;77;25518;-79
2021/03/13 08:56:46;;;;;;;20.95;14.55;;;;;;;9.40;59.42;96935.01;1797869;80;21125;-80
2021/03/13 08:59:19;;;;;;;36.45;25.35;;;;;;;9.56;57.73;96941.23;1798189;78;21596;-79
2021/03/13 09:02:04;;;;;;;32.45;23.15;;;;;;;9.51;58.24;96940.27;1797896;80;21281;-78
2021/03/13 09:04:34;;;;;;;36.93;23.55;;;;;;;9.63;58.23;96933.20;1796644;80;21116;-79
2021/03/13 09:07:08;;;;;;;24.85;17.87;;;;;;;9.92;58.47;96931.36;1796826;80;21108;-80
2021/03/13 09:09:40;;;;;;;32.33;20.05;;;;;;;10.00;57.14;96938.16;1795801;80;21149;-80
2021/03/13 09:12:11;;;;;;;32.40;22.60;;;;;;;9.97;57.38;96929.67;1797861;78;21153;-78
2021/03/13 09:14:53;;;;;;;26.02;19.15;;;;;;;10.04;57.15;96931.34;1798204;80;21133;-78
2021/03/13 09:17:24;;;;;;;30.23;20.45;;;;;;;10.07;56.97;96936.37;1780480;80;21120;-79
2021/03/13 09:19:54;;;;;;;28.12;20.60;;;;;;;10.01;56.88;96933.75;1741755;82;21266;-79
2021/03/13 09:22:25;;;;;;;36.98;21.15;;;;;;;10.11;56.49;96932.52;1749290;81;21147;-79
2021/03/13 09:25:02;;;;;;;31.45;22.93;;;;;;;10.19;55.20;96930.58;1741192;81;21318;-78
2021/03/13 09:27:37;;;;;;;29.72;21.00;;;;;;;10.18;56.08;96929.73;1748389;81;21269;-80
2021/03/13 09:30:13;;;;;;;28.30;21.30;;;;;;;10.11;55.70;96928.09;1742680;82;21297;-81
2021/03/13 09:32:45;;;;;;;31.40;19.77;;;;;;;10.09;55.41;96930.47;1741722;82;21163;-80
2021/03/13 09:35:18;;;;;;;23.95;17.92;;;;;;;10.00;54.69;96934.21;1741841;82;21748;-80
2021/03/13 09:37:46;;;;;;;20.40;14.43;;;;;;;9.93;55.32;96934.35;1741121;82;21589;-79
2021/03/13 09:40:23;;;;;;;19.70;11.35;;;;;;;9.97;54.81;96937.58;1739949;81;21343;-77
2021/03/13 09:42:52;;;;;;;25.00;16.07;;;;;;;9.95;53.69;96927.17;1740970;82;21311;-80
2021/03/13 09:45:24;;;;;;;15.90;11.03;;;;;;;9.89;54.29;96925.51;1741230;82;21337;-80
2021/03/13 09:48:00;;;;;;;14.40;9.98;;;;;;;9.89;53.25;96918.44;1741064;82;21291;-79
2021/03/13 09:50:34;;;;;;;17.82;11.70;;;;;;;9.91;53.94;96911.25;1740823;82;21192;-78
2021/03/13 09:53:06;;;;;;;21.52;11.93;;;;;;;10.02;53.77;96910.41;1734919;82;21300;-80
2021/03/13 09:55:38;;;;;;;17.62;11.12;;;;;;;10.20;53.88;96902.79;1749488;82;21144;-79
2021/03/13 09:58:07;;;;;;;22.25;16.70;;;;;;;10.22;52.70;96904.82;1750861;82;21168;-79
2021/03/13 10:00:45;;;;;;;22.98;14.50;;;;;;;10.16;51.63;96897.44;1757685;82;21171;-80
2021/03/13 10:03:16;;;;;;;18.92;13.18;;;;;;;10.23;51.09;96894.64;1751037;82;21302;-79
2021/03/13 10:05:54;;;;;;;14.63;10.32;;;;;;;10.35;51.76;96883.57;1748352;82;21630;-79
2021/03/13 10:08:33;;;;;;;;;;;;;;;10.46;52.82;96879.59;1821960;79;21140;-79
2021/03/13 10:11:03;;;;;;;17.17;11.15;;;;;;;10.42;51.88;96871.58;1797050;79;20208;-79
2021/03/13 10:13:31;;;;;;;21.12;14.75;;;;;;;10.30;51.90;96870.78;1793077;80;21707;-79
2021/03/13 10:16:02;;;;;;;20.43;13.35;;;;;;;10.38;53.10;96869.33;1793314;80;21622;-78
2021/03/13 10:18:38;;;;;;;9.73;6.70;;;;;;;10.53;52.94;96870.70;1793635;79;21282;-79
2021/03/13 10:21:07;;;;;;;17.87;10.78;;;;;;;10.61;49.09;96878.80;1789313;79;21137;-80
2021/03/13 10:23:39;;;;;;;21.62;14.95;;;;;;;10.67;50.94;96885.83;1789936;80;21159;-82
2021/03/13 10:26:13;;;;;;;18.52;9.80;;;;;;;10.57;50.12;96878.69;1792886;79;21136;-82
2021/03/13 10:28:47;;;;;;;19.98;11.97;;;;;;;10.69;49.90;96880.77;1794597;80;21278;-81
2021/03/13 10:31:20;;;;;;;17.35;12.23;;;;;;;10.67;50.49;96885.83;1800032;79;21239;-79
2021/03/13 10:33:50;;;;;;;12.35;8.53;;;;;;;10.62;50.17;96880.45;1821185;79;21133;-81
2021/03/13 10:36:22;;;;;;;6.25;4.47;;;;;;;10.67;50.04;96886.65;1764328;80;21130;-82
2021/03/13 10:38:52;;;;;;;7.75;5.62;;;;;;;10.75;47.98;96878.10;1789246;80;21159;-79
2021/03/13 10:41:23;;;;;;;9.03;5.12;;;;;;;10.84;48.44;96890.51;1792146;79;21131;-80
2021/03/13 10:43:53;;;;;;;10.85;6.58;;;;;;;10.85;48.19;96886.09;1794276;79;21130;-82
2021/03/13 10:46:26;;;;;;;7.97;5.10;;;;;;;10.97;48.14;96889.48;1787380;79;21185;-80
2021/03/13 10:48:59;;;;;;;10.32;5.60;;;;;;;11.05;47.72;96890.48;1784911;80;21598;-78
2021/03/13 10:51:31;;;;;;;11.45;7.33;;;;;;;11.04;47.49;96894.08;1787322;80;21188;-79
2021/03/13 10:54:00;;;;;;;12.85;6.92;;;;;;;11.01;47.83;96893.04;1794018;78;21115;-79
2021/03/13 10:56:42;;;;;;;10.45;6.78;;;;;;;11.16;48.57;96889.58;1794056;78;21172;-79
2021/03/13 10:59:11;;;;;;;6.47;4.42;;;;;;;11.29;48.38;96887.17;1726718;83;21230;-78
2021/03/13 11:01:46;;;;;;;14.35;8.10;;;;;;;11.31;46.37;96887.88;1737402;81;21467;-79
2021/03/13 11:04:14;;;;;;;12.07;7.95;;;;;;;10.88;46.60;96885.81;1740457;81;21595;-78
2021/03/13 11:06:42;;;;;;;11.95;8.05;;;;;;;10.62;47.73;96883.08;1738792;82;21175;-78
2021/03/13 11:09:15;;;;;;;12.80;7.60;;;;;;;10.51;47.47;96877.90;1738955;81;21184;-77
2021/03/13 11:11:42;;;;;;;10.53;5.35;;;;;;;10.54;48.52;96871.03;1740321;81;21175;-78
2021/03/13 11:14:10;;;;;;;12.43;7.90;;;;;;;10.58;47.56;96863.23;1738609;82;21200;-79
2021/03/13 11:16:38;;;;;;;12.70;7.83;;;;;;;10.65;48.55;96856.97;1738659;82;21213;-79
2021/03/13 11:19:07;;;;;;;13.25;7.47;;;;;;;10.75;46.82;96858.33;1738859;82;21180;-78
2021/03/13 11:21:37;;;;;;;8.73;5.10;;;;;;;10.86;48.18;96846.39;1739093;81;21149;-79
2021/03/13 11:24:06;;;;;;;12.65;8.05;;;;;;;10.77;45.18;96844.55;1738856;82;21143;-79
2021/03/13 11:26:34;;;;;;;15.10;7.35;;;;;;;10.73;47.28;96850.56;1739118;82;21142;-78
2021/03/13 11:29:05;;;;;;;11.25;7.33;;;;;;;10.83;47.20;96849.78;1740796;81;21135;-79
2021/03/13 11:31:34;;;;;;;16.00;8.50;;;;;;;10.94;47.21;96843.94;1741886;82;21188;-80
2021/03/13 11:34:03;;;;;;;11.15;7.47;;;;;;;11.00;47.07;96842.58;1744941;81;21188;-80
2021/03/13 11:36:31;;;;;;;10.45;6.85;;;;;;;11.10;47.10;96843.92;1753533;81;21171;-78
2021/03/13 11:38:59;;;;;;;14.25;7.37;;;;;;;11.26;46.92;96842.11;1741297;81;21283;-78
2021/03/13 11:41:27;;;;;;;10.65;7.05;;;;;;;11.28;45.83;96834.91;1739979;82;21153;-81
2021/03/13 11:43:54;;;;;;;14.38;7.42;;;;;;;11.33;46.89;96831.86;1754159;81;21166;-79
2021/03/13 11:46:23;;;;;;;9.68;6.83;;;;;;;11.35;45.26;96835.21;1740591;82;21163;-80
2021/03/13 11:48:51;;;;;;;10.18;7.47;;;;;;;11.42;46.49;96832.38;1742510;81;21152;-80
2021/03/13 11:51:18;;;;;;;6.45;4.58;;;;;;;11.60;46.87;96821.16;1760239;81;22107;-80
2021/03/13 11:53:47;;;;;;;9.70;6.40;;;;;;;11.81;45.87;96828.95;1757705;81;21165;-79
2021/03/13 11:56:14;;;;;;;9.78;6.30;;;;;;;11.71;44.91;96819.22;1747766;82;21140;-80